EYVI/VNO METAR and TAF weather

Enter ICAO airport designator
Station Type Date Time Source
EYVI METAR 2021/03/06 01:50 UTC NOAA

EYVI 060150Z 32007KT 9999 BKN029 M05/M08 Q1020 R01/1///95 NOSIG


Station Type Date Time Source
EYVI Decoded METAR 2021/03/06 01:50 UTC NOAA

Vilnius, Lithuania (EYVI) 54-38N 025-06E 156M
Mar 05, 2021 - 08:50 PM EST / 2021.03.06 0150 UTC
Wind: from the NW (320 degrees) at 8 MPH (7 KT):0
Visibility: greater than 7 mile(s):0
Sky conditions: mostly cloudy
Temperature: 23 F (-5 C)
Windchill: 14 F (-10 C):1
Dew Point: 17 F (-8 C)
Relative Humidity: 79%
Pressure (altimeter): 30.12 in. Hg (1020 hPa)
ob: EYVI 060150Z 32007KT 9999 BKN029 M05/M08 Q1020 R01/1///95 NOSIG
cycle: 2

Station Type Date Time Source
EYVI TAF 2021/03/05 18:09 UTC NOAA

TAF TAF EYVI 051704Z 0518/0618 30008KT 8000 BKN020
TEMPO 0518/0524 1500 SHSN BKN005 BKN015CB
TEMPO 0600/0606 BKN005
BECMG 0606/0608 SCT030
BECMG 0612/0614 23012G24KT

Example: see airport list